Time;durP1;ratioP1;P1;durP2;ratioP2;P2;SDS_P1;SDS_P2;PMS_P1;PMS_P2;Temp;Humidity;BMP_temperature;BMP_pressure;BME280_temperature;BME280_humidity;BME280_pressure;Samples;Min_cycle;Max_cycle;Signal;HPM_P1;HPM_P2
2022/09/12 00:00:51;;;;;;;22.05;16.00;;;;;;;13.66;76.70;100671.91;10067880;29;20064;-80
2022/09/12 00:05:54;;;;;;;21.08;15.80;;;;;;;13.49;77.18;100660.75;10071985;29;20061;-80
2022/09/12 00:10:57;;;;;;;23.55;17.73;;;;;;;13.54;77.12;100657.63;10085303;29;20060;-80
2022/09/12 00:16:01;;;;;;;25.83;17.58;;;;;;;13.47;77.43;100656.50;10095213;29;20125;-79
2022/09/12 00:21:05;;;;;;;24.58;17.67;;;;;;;13.48;77.60;100645.53;10095487;29;20077;-80
2022/09/12 00:26:08;;;;;;;26.30;18.05;;;;;;;13.48;77.34;100648.25;10116003;29;20514;-79
2022/09/12 00:31:14;;;;;;;26.40;17.25;;;;;;;13.52;77.05;100648.84;10092045;29;20052;-78
2022/09/12 00:36:21;;;;;;;22.33;16.50;;;;;;;13.48;77.01;100639.28;10085394;29;20081;-78
2022/09/12 00:41:26;;;;;;;20.92;15.35;;;;;;;13.50;77.02;100648.13;10096004;29;20049;-80
2022/09/12 00:46:39;;;;;;;19.73;15.85;;;;;;;13.47;76.77;100640.28;10101662;29;20046;-81
2022/09/12 00:51:46;;;;;;;25.33;16.73;;;;;;;13.51;77.00;100638.16;10090952;29;20053;-81
2022/09/12 00:56:52;;;;;;;20.60;16.02;;;;;;;13.47;76.60;100641.16;10090682;29;20053;-81
2022/09/12 01:01:57;;;;;;;23.60;16.95;;;;;;;13.44;76.69;100643.28;10090609;29;20492;-81
2022/09/12 01:07:00;;;;;;;20.20;14.45;;;;;;;13.33;76.85;100638.78;10086493;29;20101;-81
2022/09/12 01:12:05;;;;;;;24.38;16.67;;;;;;;13.31;76.93;100634.53;10089904;29;20050;-80
2022/09/12 01:17:12;;;;;;;23.70;16.00;;;;;;;13.30;76.60;100638.19;10077152;29;20101;-80
2022/09/12 01:22:35;;;;;;;21.85;16.77;;;;;;;13.26;77.12;100629.53;10097503;29;20068;-80
2022/09/12 01:28:02;;;;;;;23.67;17.23;;;;;;;13.21;77.03;100629.91;10098110;29;20049;-81
2022/09/12 01:33:38;;;;;;;27.23;17.55;;;;;;;13.13;77.24;100621.66;10081331;29;20056;-80
2022/09/12 01:38:47;;;;;;;27.52;18.58;;;;;;;13.08;77.56;100623.03;10083590;29;20080;-80
2022/09/12 01:43:58;;;;;;;29.75;19.65;;;;;;;12.98;78.01;100617.63;10098660;29;20049;-80
2022/09/12 01:49:09;;;;;;;27.88;19.25;;;;;;;13.01;77.72;100612.81;10082473;29;20053;-80
2022/09/12 01:54:18;;;;;;;30.27;20.20;;;;;;;12.95;77.63;100615.19;10086362;29;20041;-80
2022/09/12 01:59:27;;;;;;;26.83;19.98;;;;;;;12.89;78.22;100603.13;10076378;29;20062;-80
2022/09/12 02:04:36;;;;;;;34.63;21.00;;;;;;;12.80;78.28;100596.66;10088891;29;20045;-81
2022/09/12 02:09:45;;;;;;;28.00;19.30;;;;;;;12.72;78.82;100595.63;10094451;29;20070;-80
2022/09/12 02:14:53;;;;;;;31.25;22.42;;;;;;;12.68;79.08;100589.66;10083427;29;20045;-80
2022/09/12 02:20:03;;;;;;;32.30;21.38;;;;;;;12.69;78.66;100585.97;10085970;29;20468;-81
2022/09/12 02:25:09;;;;;;;31.58;22.15;;;;;;;12.65;78.99;100589.06;10091572;29;20046;-80
2022/09/12 02:30:15;;;;;;;28.27;19.73;;;;;;;12.67;78.80;100590.66;10078316;29;20046;-80
2022/09/12 02:35:31;;;;;;;25.85;18.80;;;;;;;12.72;78.33;100590.22;10080098;29;20125;-79
2022/09/12 02:40:35;;;;;;;27.10;18.85;;;;;;;12.73;77.86;100591.97;10090418;29;20108;-80
2022/09/12 02:45:38;;;;;;;26.20;18.95;;;;;;;12.69;77.46;100596.75;10089130;29;20488;-80
2022/09/12 02:50:43;;;;;;;29.23;18.75;;;;;;;12.65;77.36;100586.38;10089607;29;20061;-80
2022/09/12 02:55:46;;;;;;;29.70;19.73;;;;;;;12.63;77.45;100591.03;10093084;29;20078;-81
2022/09/12 03:00:54;;;;;;;25.92;17.02;;;;;;;12.59;77.38;100583.22;10086962;29;20468;-81
2022/09/12 03:06:00;;;;;;;26.27;19.27;;;;;;;12.57;76.92;100592.41;10091079;29;20082;-80
2022/09/12 03:11:32;;;;;;;25.48;18.08;;;;;;;12.55;76.85;100589.84;10101106;29;20461;-80
2022/09/12 03:16:43;;;;;;;25.97;17.90;;;;;;;12.52;76.84;100576.66;10080375;29;20045;-80
2022/09/12 03:21:59;;;;;;;29.27;20.00;;;;;;;12.47;76.70;100578.03;10085035;29;20576;-80
2022/09/12 03:27:09;;;;;;;31.40;21.30;;;;;;;12.38;76.98;100566.22;10078739;29;20056;-80
2022/09/12 03:32:12;;;;;;;39.20;24.63;;;;;;;12.29;77.69;100572.41;10084147;29;20508;-80
2022/09/12 03:37:16;;;;;;;39.25;23.20;;;;;;;12.25;78.11;100562.81;10096527;29;20054;-79
2022/09/12 03:42:19;;;;;;;31.25;22.70;;;;;;;12.24;78.11;100574.59;10096523;29;20423;-80
2022/09/12 03:47:22;;;;;;;;;;;;;;;12.26;77.93;100567.22;10062235;29;20056;-80
2022/09/12 03:52:26;;;;;;;45.75;25.35;;;;;;;12.23;78.31;100573.75;10085657;29;19928;-81
2022/09/12 03:57:29;;;;;;;35.50;23.58;;;;;;;12.21;78.59;100570.31;10082908;29;20086;-80
2022/09/12 04:02:32;;;;;;;37.63;24.65;;;;;;;12.19;78.79;100574.13;10070300;29;20057;-80
2022/09/12 04:07:36;;;;;;;38.28;22.35;;;;;;;12.15;78.86;100573.53;10068192;29;20061;-81
2022/09/12 04:12:39;;;;;;;35.47;21.55;;;;;;;12.08;78.86;100581.25;10088049;29;20094;-80
2022/09/12 04:17:42;;;;;;;35.17;21.67;;;;;;;12.05;79.11;100580.69;10090398;29;20049;-79
2022/09/12 04:22:46;;;;;;;34.50;21.92;;;;;;;12.00;79.39;100572.97;10105552;29;20057;-81
2022/09/12 04:27:49;;;;;;;37.00;23.63;;;;;;;12.02;79.27;100567.47;10098405;29;20045;-80
2022/09/12 04:32:52;;;;;;;37.65;22.02;;;;;;;11.98;79.39;100566.00;10086738;29;20065;-79
2022/09/12 04:37:56;;;;;;;36.15;21.73;;;;;;;12.01;79.37;100563.06;10089195;29;20046;-80
2022/09/12 04:42:59;;;;;;;37.53;24.77;;;;;;;12.06;79.35;100577.84;10109188;29;20069;-81
2022/09/12 04:48:02;;;;;;;36.20;22.77;;;;;;;12.02;79.40;100579.09;10107219;29;20065;-81
2022/09/12 04:53:06;;;;;;;31.88;22.00;;;;;;;12.06;79.37;100572.44;10085107;29;20050;-81
2022/09/12 04:58:09;;;;;;;34.75;22.13;;;;;;;12.07;79.09;100568.78;10099668;29;20045;-80
2022/09/12 05:03:12;;;;;;;34.67;22.02;;;;;;;11.99;79.20;100570.44;10095438;29;20052;-80
2022/09/12 05:08:17;;;;;;;31.35;21.88;;;;;;;12.00;79.14;100564.03;10098385;29;20077;-80
2022/09/12 05:13:21;;;;;;;30.50;20.75;;;;;;;12.03;79.05;100559.25;10074394;29;20057;-79
2022/09/12 05:18:25;;;;;;;30.20;20.58;;;;;;;12.05;79.11;100569.91;10088881;29;20045;-78
2022/09/12 05:23:30;;;;;;;31.25;21.00;;;;;;;12.13;78.85;100562.88;10095253;29;20041;-80
2022/09/12 05:28:35;;;;;;;32.70;21.65;;;;;;;12.18;78.44;100551.72;10091433;29;20049;-79
2022/09/12 05:33:39;;;;;;;32.50;22.15;;;;;;;12.11;78.29;100559.47;10094575;29;20050;-77
2022/09/12 05:38:44;;;;;;;33.45;22.00;;;;;;;12.12;78.32;100561.19;10095487;29;20049;-77
2022/09/12 05:43:48;;;;;;;33.60;20.17;;;;;;;12.28;78.06;100557.16;10085222;29;20041;-81
2022/09/12 05:48:51;;;;;;;31.20;20.83;;;;;;;12.35;78.05;100563.78;10083955;29;20149;-77
2022/09/12 05:54:02;;;;;;;32.28;21.73;;;;;;;12.48;77.95;100560.88;10091162;29;20052;-81
2022/09/12 05:59:06;;;;;;;31.73;19.80;;;;;;;12.53;77.69;100564.91;10108395;29;20068;-79
2022/09/12 06:04:09;;;;;;;32.20;21.63;;;;;;;12.72;77.28;100565.97;10081995;29;20049;-81
2022/09/12 06:09:15;;;;;;;27.50;19.08;;;;;;;12.91;76.71;100568.75;10095226;29;20049;-80
2022/09/12 06:14:18;;;;;;;32.13;20.10;;;;;;;12.99;76.49;100573.47;10091388;29;20044;-81
2022/09/12 06:19:23;;;;;;;30.35;19.70;;;;;;;13.20;76.20;100563.50;10084122;29;20068;-80
2022/09/12 06:24:28;;;;;;;28.90;19.92;;;;;;;13.45;75.93;100558.63;10076968;29;20135;-80
2022/09/12 06:29:31;;;;;;;29.80;19.77;;;;;;;13.61;75.03;100550.84;10101288;29;20057;-78
2022/09/12 06:34:35;;;;;;;26.52;19.52;;;;;;;13.75;74.48;100557.66;10097725;29;20045;-79
2022/09/12 06:39:39;;;;;;;8.48;5.88;;;;;;;13.99;74.23;100542.88;10067092;29;20050;-79
2022/09/12 06:44:43;;;;;;;20.50;14.38;;;;;;;14.35;72.79;100542.13;10087747;29;20048;-80
2022/09/12 06:49:45;;;;;;;17.85;12.95;;;;;;;14.60;72.12;100535.28;10096313;29;20057;-79
2022/09/12 06:54:50;;;;;;;16.10;13.15;;;;;;;15.00;71.00;100535.97;10076564;29;20056;-79
2022/09/12 06:59:53;;;;;;;17.40;12.93;;;;;;;15.23;69.93;100539.16;10088836;29;20068;-80
2022/09/12 07:04:55;;;;;;;14.93;11.68;;;;;;;15.59;68.54;100534.66;10090652;29;20057;-79
2022/09/12 07:10:00;;;;;;;14.77;12.75;;;;;;;15.65;67.41;100531.34;10094409;29;20049;-79
2022/09/12 07:15:02;;;;;;;19.80;13.40;;;;;;;16.20;65.93;100543.00;10087632;29;20050;-80
2022/09/12 07:20:06;;;;;;;17.67;12.65;;;;;;;16.56;64.75;100539.25;10074587;29;20261;-81
2022/09/12 07:25:11;;;;;;;16.35;11.63;;;;;;;16.81;63.66;100542.97;10098517;29;20038;-80
2022/09/12 07:30:13;;;;;;;17.83;13.13;;;;;;;17.37;63.63;100540.69;10080595;29;20061;-80
2022/09/12 07:35:16;;;;;;;16.42;11.55;;;;;;;17.57;62.46;100540.38;10088046;29;20089;-80
2022/09/12 07:40:21;;;;;;;15.02;10.70;;;;;;;18.22;60.96;100540.47;10096302;29;20045;-78
2022/09/12 07:45:25;;;;;;;14.55;10.95;;;;;;;18.63;60.29;100542.31;10079242;29;20046;-79
2022/09/12 07:50:28;;;;;;;16.02;10.95;;;;;;;18.71;58.17;100542.28;10099262;29;20045;-79
2022/09/12 07:55:33;;;;;;;12.05;9.43;;;;;;;18.85;58.85;100544.31;10107181;29;20069;-79
2022/09/12 08:00:36;;;;;;;13.90;11.02;;;;;;;18.99;58.16;100538.13;10108199;29;20109;-79
2022/09/12 08:05:39;;;;;;;14.13;11.52;;;;;;;19.60;56.75;100540.25;10098149;29;20046;-81
2022/09/12 08:10:43;;;;;;;13.95;9.50;;;;;;;20.02;56.06;100539.81;10083571;29;20489;-80
2022/09/12 08:15:46;;;;;;;14.68;10.32;;;;;;;20.23;55.47;100544.56;10101288;29;20075;-79
2022/09/12 08:20:56;;;;;;;11.23;9.32;;;;;;;20.61;54.12;100543.72;10091403;29;20041;-79
2022/09/12 08:26:02;;;;;;;10.23;6.85;;;;;;;21.05;54.17;100548.38;10099094;29;20052;-80
2022/09/12 08:31:11;;;;;;;12.05;9.27;;;;;;;20.20;53.52;100553.09;10098633;29;20063;-79
2022/09/12 08:36:15;;;;;;;9.60;8.27;;;;;;;20.02;55.07;100549.84;10100977;29;20041;-82
2022/09/12 08:41:29;;;;;;;10.73;7.68;;;;;;;20.20;55.08;100544.09;10098238;29;20085;-80
2022/09/12 08:46:36;;;;;;;8.75;7.28;;;;;;;20.43;55.17;100524.97;10103336;29;20196;-80
2022/09/12 08:51:40;;;;;;;8.70;6.40;;;;;;;20.61;54.33;100536.38;10105396;29;20064;-81
2022/09/12 08:56:46;;;;;;;8.90;6.78;;;;;;;20.50;54.39;100534.13;10097906;29;20049;-81
2022/09/12 09:01:57;;;;;;;11.20;5.00;;;;;;;20.58;54.40;100530.47;10101541;29;20053;-81
2022/09/12 09:07:31;;;;;;;9.80;8.68;;;;;;;20.65;54.49;100535.00;10095924;29;20045;-80
2022/09/12 09:12:46;;;;;;;10.05;7.55;;;;;;;21.00;54.44;100530.63;10091170;29;20045;-81
2022/09/12 09:17:53;;;;;;;9.05;7.68;;;;;;;20.95;53.61;100527.66;10097014;29;20041;-81
2022/09/12 09:23:02;;;;;;;7.95;6.75;;;;;;;21.29;53.08;100526.22;10106518;29;20097;-81
2022/09/12 09:28:13;;;;;;;7.35;6.65;;;;;;;21.24;53.28;100523.22;10091420;29;20085;-80
2022/09/12 09:33:22;;;;;;;8.53;6.13;;;;;;;21.43;51.81;100519.03;10090039;29;20053;-80
2022/09/12 09:38:31;;;;;;;6.15;5.55;;;;;;;21.61;51.88;100508.53;10098524;29;20041;-80
2022/09/12 09:43:38;;;;;;;8.10;6.43;;;;;;;21.95;52.70;100507.00;10097191;29;20061;-81
2022/09/12 09:48:44;;;;;;;9.55;6.45;;;;;;;22.20;51.72;100507.41;10103033;29;20160;-81
2022/09/12 09:53:51;;;;;;;7.85;5.13;;;;;;;22.26;51.33;100503.88;10093021;29;20049;-79
2022/09/12 09:58:56;;;;;;;7.80;5.47;;;;;;;22.26;50.54;100500.31;10102955;29;20051;-81
2022/09/12 10:03:59;;;;;;;9.60;5.93;;;;;;;21.93;50.85;100495.38;10097659;29;20053;-81
2022/09/12 10:09:17;;;;;;;5.50;5.00;;;;;;;21.91;51.40;100500.19;10119129;29;20072;-78
2022/09/12 10:14:37;;;;;;;6.15;5.45;;;;;;;21.68;50.28;100493.03;10130756;29;20578;-82
2022/09/12 10:19:40;;;;;;;5.65;5.10;;;;;;;21.82;51.15;100491.28;10104056;29;20056;-79
2022/09/12 10:24:48;;;;;;;6.88;5.75;;;;;;;22.41;50.82;100487.38;10085771;29;20572;-80
2022/09/12 10:30:00;;;;;;;7.25;6.10;;;;;;;22.75;49.80;100481.06;10103119;29;20041;-81
2022/09/12 10:35:07;;;;;;;10.17;5.93;;;;;;;22.47;49.88;100478.38;10087319;29;20098;-80
2022/09/12 10:40:24;;;;;;;6.15;5.55;;;;;;;22.71;49.48;100468.00;10099454;29;20387;-81
2022/09/12 10:45:31;;;;;;;7.00;6.32;;;;;;;22.35;50.25;100460.78;10090415;29;20453;-82
2022/09/12 10:50:37;;;;;;;7.05;4.90;;;;;;;22.69;50.52;100459.16;10089758;29;20045;-80
2022/09/12 10:55:45;;;;;;;7.88;5.18;;;;;;;22.99;49.17;100451.50;10100194;29;20060;-80
2022/09/12 11:01:01;;;;;;;6.70;5.22;;;;;;;23.19;48.59;100459.81;10094745;29;20116;-81
2022/09/12 11:06:06;;;;;;;6.15;5.32;;;;;;;23.81;47.01;100460.63;10091756;29;20056;-80
2022/09/12 11:11:23;;;;;;;7.45;5.43;;;;;;;24.37;45.61;100443.69;10074864;29;20057;-80
2022/09/12 11:16:40;;;;;;;5.18;4.72;;;;;;;25.48;43.79;100445.41;10090839;29;20045;-80
2022/09/12 11:22:00;;;;;;;6.35;4.95;;;;;;;26.15;40.78;100428.41;10081749;29;20054;-81
2022/09/12 11:27:19;;;;;;;8.10;5.50;;;;;;;25.21;41.86;100433.72;10096443;29;20041;-81
2022/09/12 11:32:40;;;;;;;5.30;4.13;;;;;;;24.72;44.30;100430.53;10079957;29;20411;-80
2022/09/12 11:38:06;;;;;;;5.38;4.82;;;;;;;25.57;41.87;100413.00;10112716;29;20046;-80
2022/09/12 11:43:20;;;;;;;7.88;4.82;;;;;;;25.56;42.45;100416.78;10114703;29;20507;-82
2022/09/12 11:48:38;;;;;;;6.47;4.90;;;;;;;26.18;37.65;100409.50;10101723;29;20033;-82
2022/09/12 11:53:43;;;;;;;7.07;5.65;;;;;;;26.17;38.40;100410.59;10101659;29;20491;-82
2022/09/12 11:58:55;;;;;;;7.03;5.35;;;;;;;26.97;37.12;100403.38;10094081;29;20042;-81
2022/09/12 12:04:06;;;;;;;6.60;5.35;;;;;;;26.78;36.74;100397.03;10106028;29;20344;-81
2022/09/12 12:09:11;;;;;;;6.95;4.50;;;;;;;26.61;37.63;100394.88;10107688;29;20048;-80
2022/09/12 12:14:17;;;;;;;4.95;4.43;;;;;;;26.61;36.55;100385.78;10096739;29;20056;-80
2022/09/12 12:19:33;;;;;;;4.10;3.65;;;;;;;26.20;36.00;100384.53;10099964;29;20037;-81
2022/09/12 12:25:03;;;;;;;5.93;4.50;;;;;;;25.86;37.78;100378.47;10112081;29;20053;-82
2022/09/12 12:30:58;;;;;;;5.00;3.97;;;;;;;26.37;37.28;100373.78;10101715;29;20079;-81
2022/09/12 12:36:08;;;;;;;4.70;4.18;;;;;;;27.99;34.96;100376.56;10086154;29;20495;-82
2022/09/12 12:41:43;;;;;;;4.53;4.13;;;;;;;27.76;35.46;100360.81;10090790;29;20049;-81
2022/09/12 12:47:14;;;;;;;5.40;4.00;;;;;;;28.29;33.00;100361.78;10085964;29;20049;-80
2022/09/12 12:52:19;;;;;;;9.70;4.30;;;;;;;27.87;34.24;100348.09;10105440;29;20090;-81
2022/09/12 12:57:41;;;;;;;4.60;3.63;;;;;;;28.88;32.78;100351.44;10102021;29;20045;-81
2022/09/12 13:02:52;;;;;;;6.45;4.57;;;;;;;27.43;34.46;100339.31;10105639;29;20056;-82
2022/09/12 13:08:00;;;;;;;4.65;4.25;;;;;;;28.03;34.05;100335.53;10087518;29;20052;-83
2022/09/12 13:13:07;;;;;;;4.28;3.83;;;;;;;26.39;36.58;100331.19;10086875;29;20121;-80
2022/09/12 13:18:13;;;;;;;5.80;4.00;;;;;;;28.38;33.76;100313.34;10090011;29;20081;-80
2022/09/12 13:23:26;;;;;;;4.47;4.07;;;;;;;29.51;32.63;100305.28;10087998;29;20056;-81
2022/09/12 13:28:30;;;;;;;4.55;3.92;;;;;;;29.63;31.69;100285.84;10085743;29;20056;-81
2022/09/12 13:33:37;;;;;;;4.15;3.55;;;;;;;29.10;32.11;100285.25;10098785;29;20045;-81
2022/09/12 13:38:54;;;;;;;5.30;4.80;;;;;;;30.06;30.73;100286.16;10116518;29;20056;-81
2022/09/12 13:43:57;;;;;;;4.32;3.92;;;;;;;29.29;32.05;100280.31;10101960;29;20048;-82
2022/09/12 13:49:06;;;;;;;4.72;4.32;;;;;;;29.29;31.78;100273.91;10100653;29;20045;-80
2022/09/12 13:54:19;;;;;;;4.82;4.00;;;;;;;28.94;32.80;100267.50;10104984;29;20045;-81
2022/09/12 13:59:26;;;;;;;7.72;4.70;;;;;;;28.22;33.83;100265.28;10096903;29;20041;-83
2022/09/12 14:09:55;;;;;;;5.50;4.40;;;;;;;27.57;33.86;100266.28;10098380;29;20041;-82
2022/09/12 14:14:58;;;;;;;5.60;4.50;;;;;;;26.28;35.92;100250.19;10091928;29;20070;-82
2022/09/12 14:20:05;;;;;;;4.60;4.07;;;;;;;27.29;34.73;100219.22;10074784;29;20081;-81
2022/09/12 14:25:16;;;;;;;4.53;4.10;;;;;;;27.57;33.45;100232.34;10108612;29;20056;-81
2022/09/12 14:30:25;;;;;;;4.30;3.90;;;;;;;27.49;34.42;100224.44;10116412;29;20075;-80
2022/09/12 14:35:28;;;;;;;5.72;3.67;;;;;;;27.72;34.05;100223.56;10076858;29;20492;-81
2022/09/12 14:40:41;;;;;;;3.92;3.53;;;;;;;27.93;33.07;100211.06;10094034;29;20053;-81
2022/09/12 14:45:51;;;;;;;3.67;3.38;;;;;;;28.11;32.94;100210.06;10087220;29;20047;-82
2022/09/12 14:50:54;;;;;;;5.60;3.75;;;;;;;27.32;34.53;100207.75;10082031;29;20061;-79
2022/09/12 14:56:07;;;;;;;6.28;4.35;;;;;;;27.33;34.08;100201.97;10089609;29;20049;-81
2022/09/12 15:01:26;;;;;;;6.10;4.40;;;;;;;26.94;35.15;100200.75;10090352;29;20428;-80
2022/09/12 15:06:31;;;;;;;4.43;3.97;;;;;;;27.34;34.09;100197.28;10095813;29;20070;-80
2022/09/12 15:11:36;;;;;;;4.18;3.78;;;;;;;26.69;35.45;100192.66;10118903;29;20131;-81
2022/09/12 15:16:39;;;;;;;3.95;3.65;;;;;;;26.68;34.82;100196.44;10081004;29;20057;-81
2022/09/12 15:21:42;;;;;;;5.75;4.45;;;;;;;26.36;35.33;100191.22;10096772;29;20037;-81
2022/09/12 15:26:46;;;;;;;4.28;3.90;;;;;;;26.16;36.43;100183.19;10102501;29;20038;-82
2022/09/12 15:31:51;;;;;;;5.32;3.97;;;;;;;26.09;36.25;100182.44;10104993;29;20053;-80
2022/09/12 15:36:54;;;;;;;4.38;3.70;;;;;;;25.90;36.71;100172.53;10090647;29;20050;-80
2022/09/12 15:41:58;;;;;;;5.10;4.10;;;;;;;26.05;36.70;100168.31;10082672;29;20106;-80
2022/09/12 15:47:01;;;;;;;5.07;4.60;;;;;;;25.32;37.88;100169.13;10088047;29;20140;-82
2022/09/12 15:52:04;;;;;;;5.78;3.72;;;;;;;25.21;38.36;100158.88;10121854;29;20065;-80
2022/09/12 15:57:09;;;;;;;4.40;3.85;;;;;;;24.65;39.07;100166.06;10089270;29;20074;-81
2022/09/12 16:02:12;;;;;;;4.57;4.20;;;;;;;24.56;39.66;100161.09;10100352;29;20074;-80
2022/09/12 16:07:15;;;;;;;4.55;3.95;;;;;;;24.84;38.78;100163.41;10086617;29;20041;-80
2022/09/12 16:12:19;;;;;;;4.70;4.25;;;;;;;25.01;38.51;100153.53;10099632;29;20049;-79
2022/09/12 16:17:22;;;;;;;4.15;3.78;;;;;;;24.99;38.50;100158.44;10107240;29;20045;-80
2022/09/12 16:22:25;;;;;;;4.10;3.70;;;;;;;24.54;39.63;100144.84;10085687;29;20125;-79
2022/09/12 16:27:30;;;;;;;3.92;3.58;;;;;;;24.24;39.98;100130.84;10089555;29;20064;-81
2022/09/12 16:32:33;;;;;;;6.25;4.25;;;;;;;24.21;39.92;100131.28;10079767;29;20050;-79
2022/09/12 16:37:36;;;;;;;4.70;4.30;;;;;;;23.77;40.32;100119.28;10103240;29;20045;-80
2022/09/12 16:42:41;;;;;;;7.00;3.83;;;;;;;23.80;40.67;100116.13;10115780;29;20140;-80
2022/09/12 16:47:45;;;;;;;4.22;3.83;;;;;;;23.84;41.21;100112.72;10103391;29;20053;-80
2022/09/12 16:52:48;;;;;;;3.83;3.53;;;;;;;23.81;41.68;100112.31;10102528;29;20045;-80
2022/09/12 16:57:53;;;;;;;3.78;3.40;;;;;;;23.63;42.00;100102.03;10117780;29;20140;-80
2022/09/12 17:02:55;;;;;;;6.07;3.60;;;;;;;23.43;42.58;100102.94;10097307;29;20191;-80
2022/09/12 17:07:59;;;;;;;3.95;3.55;;;;;;;23.23;43.30;100098.56;10096269;29;20063;-80
2022/09/12 17:13:03;;;;;;;4.53;3.83;;;;;;;22.99;43.98;100100.91;10096788;29;20087;-80
2022/09/12 17:18:06;;;;;;;3.78;3.33;;;;;;;22.95;44.18;100091.44;10092046;29;20069;-80
2022/09/12 17:23:09;;;;;;;6.05;3.80;;;;;;;22.68;44.81;100080.53;10086042;29;20057;-79
2022/09/12 17:28:14;;;;;;;6.00;3.83;;;;;;;22.58;45.25;100076.53;10107724;29;20037;-80
2022/09/12 17:33:17;;;;;;;4.45;3.42;;;;;;;22.26;46.37;100081.72;10104050;29;20064;-80
2022/09/12 17:38:21;;;;;;;4.00;3.60;;;;;;;22.04;46.72;100078.31;10091048;29;20658;-78
2022/09/12 17:43:28;;;;;;;4.22;3.45;;;;;;;21.81;47.52;100075.94;10102648;29;20108;-80
2022/09/12 17:48:32;;;;;;;6.38;5.45;;;;;;;21.60;48.14;100082.34;10110600;29;20069;-79
2022/09/12 17:53:34;;;;;;;4.35;4.00;;;;;;;21.37;48.43;100069.88;10097351;29;20053;-78
2022/09/12 17:58:39;;;;;;;4.97;3.80;;;;;;;21.18;48.80;100076.06;10117234;29;20098;-79
2022/09/12 18:03:42;;;;;;;6.55;3.88;;;;;;;21.04;48.85;100079.78;10089381;29;20056;-80
2022/09/12 18:08:45;;;;;;;5.38;4.07;;;;;;;20.90;49.39;100081.50;10102422;29;20066;-79
2022/09/12 18:13:49;;;;;;;4.07;3.58;;;;;;;20.62;50.15;100068.72;10109461;29;20455;-80
2022/09/12 18:18:52;;;;;;;5.45;4.00;;;;;;;20.60;50.27;100068.09;10084080;29;20046;-80
2022/09/12 18:23:57;;;;;;;4.47;4.07;;;;;;;20.49;50.17;100066.75;10091546;29;20064;-78
2022/09/12 18:29:02;;;;;;;6.22;3.50;;;;;;;20.39;50.14;100074.41;10090048;29;20080;-80
2022/09/12 18:34:06;;;;;;;4.55;4.05;;;;;;;20.30;50.60;100061.94;10095600;29;20491;-79
2022/09/12 18:39:10;;;;;;;8.82;6.78;;;;;;;20.19;50.93;100065.19;10120270;29;20116;-80
2022/09/12 18:44:14;;;;;;;13.45;8.82;;;;;;;20.03;51.58;100058.94;10101662;29;20469;-81
2022/09/12 18:49:17;;;;;;;9.35;6.40;;;;;;;19.93;52.04;100061.13;10083919;29;20053;-81
2022/09/12 18:54:20;;;;;;;6.93;4.80;;;;;;;19.82;52.38;100054.28;10086342;29;20049;-80
2022/09/12 18:59:25;;;;;;;9.65;6.50;;;;;;;19.73;52.46;100049.19;10091676;29;20049;-78
2022/09/12 19:04:28;;;;;;;6.78;5.88;;;;;;;19.53;53.41;100044.31;10105979;29;20049;-78
2022/09/12 19:09:30;;;;;;;5.00;4.50;;;;;;;19.37;54.07;100042.63;10092860;29;20057;-80
2022/09/12 19:14:35;;;;;;;8.40;5.40;;;;;;;19.31;54.22;100037.09;10074700;29;20049;-80
2022/09/12 19:19:37;;;;;;;5.28;4.65;;;;;;;19.12;54.62;100031.22;10094871;29;20102;-80
2022/09/12 19:24:42;;;;;;;6.22;5.15;;;;;;;19.00;55.01;100038.16;10098963;29;20053;-80
2022/09/12 19:29:46;;;;;;;5.55;5.03;;;;;;;18.96;55.25;100034.13;10086131;29;20045;-81
2022/09/12 19:34:49;;;;;;;5.88;4.72;;;;;;;18.93;55.04;100023.63;10103685;29;20391;-80
2022/09/12 19:39:52;;;;;;;7.53;5.60;;;;;;;18.85;55.19;100016.41;10093874;29;20083;-80
2022/09/12 19:44:56;;;;;;;5.65;5.10;;;;;;;18.77;55.24;100017.28;10106451;29;20063;-79
2022/09/12 19:49:59;;;;;;;5.60;5.10;;;;;;;18.65;55.64;100021.53;10108496;29;20060;-81
2022/09/12 19:55:02;;;;;;;7.07;5.20;;;;;;;18.55;55.82;100016.34;10079502;29;20053;-81
2022/09/12 20:00:08;;;;;;;5.72;5.07;;;;;;;18.47;56.01;100007.41;10076853;29;20068;-80
2022/09/12 20:05:11;;;;;;;7.25;5.10;;;;;;;18.40;55.98;100007.28;10113415;29;20053;-79
2022/09/12 20:10:14;;;;;;;6.82;4.80;;;;;;;18.37;56.16;99999.50;10105641;29;20051;-80
2022/09/12 20:15:18;;;;;;;5.28;4.57;;;;;;;18.31;56.29;99992.09;10120221;29;20049;-80
2022/09/12 20:20:23;;;;;;;6.20;5.35;;;;;;;18.26;56.40;99995.38;10093839;29;20136;-80
2022/09/12 20:25:26;;;;;;;7.80;5.10;;;;;;;18.13;56.93;99997.88;10062271;29;20571;-80
2022/09/12 20:30:31;;;;;;;6.93;5.25;;;;;;;18.00;57.14;99986.78;10123223;23;20403;-78
2022/09/12 20:35:33;;;;;;;6.45;5.00;;;;;;;17.92;57.30;99965.91;10131872;29;20053;-79
2022/09/12 20:40:36;;;;;;;6.60;5.47;;;;;;;17.81;57.67;99967.19;10141065;29;20041;-78
2022/09/12 20:45:41;;;;;;;7.60;5.13;;;;;;;17.82;57.72;99977.00;10133407;29;20045;-79
2022/09/12 20:50:44;;;;;;;6.22;5.63;;;;;;;17.77;58.01;99978.59;10133711;29;20101;-78
2022/09/12 20:55:51;;;;;;;6.18;5.07;;;;;;;17.83;57.57;99977.88;10121132;29;20106;-78
2022/09/12 21:00:55;;;;;;;6.82;5.22;;;;;;;17.81;57.42;99975.34;10109150;29;20068;-79
2022/09/12 21:05:58;;;;;;;6.05;5.32;;;;;;;17.74;57.60;99963.50;10129346;29;20501;-77
2022/09/12 21:11:01;;;;;;;7.32;4.78;;;;;;;17.71;57.78;99950.28;10116909;29;20127;-78
2022/09/12 21:16:07;;;;;;;7.03;5.40;;;;;;;17.68;58.00;99940.63;10128149;29;20079;-77
2022/09/12 21:21:11;;;;;;;5.55;5.00;;;;;;;17.59;57.71;99930.03;10130297;29;20136;-78
2022/09/12 21:26:14;;;;;;;5.63;4.70;;;;;;;17.59;56.98;99933.56;10110023;29;20120;-78
2022/09/12 21:38:06;;;;;;;5.65;4.75;;;;;;;17.82;55.34;99916.41;10119762;29;20041;-79
2022/09/12 21:43:09;;;;;;;6.72;4.15;;;;;;;17.84;55.17;99919.81;10140594;29;20490;-79
2022/09/12 21:48:14;;;;;;;5.57;5.00;;;;;;;17.83;55.24;99907.25;10126166;29;20053;-78
2022/09/12 21:53:18;;;;;;;5.28;4.60;;;;;;;17.79;55.81;99901.31;10136658;29;20053;-79
2022/09/12 21:58:21;;;;;;;5.55;4.72;;;;;;;17.67;56.07;99914.50;10133769;29;20049;-79
2022/09/12 22:03:24;;;;;;;5.70;4.93;;;;;;;17.65;56.31;99913.81;10128768;29;20109;-78
2022/09/12 22:08:30;;;;;;;6.05;5.45;;;;;;;17.57;56.54;99910.34;10121244;29;20068;-79
2022/09/12 22:13:32;;;;;;;6.63;5.03;;;;;;;17.57;56.93;99918.47;10138634;29;20061;-79
2022/09/12 22:18:36;;;;;;;7.05;6.05;;;;;;;17.47;56.63;99911.44;10120404;29;20083;-79
2022/09/12 22:29:01;;;;;;;9.75;5.40;;;;;;;17.35;57.17;99910.16;10119579;29;20045;-78
2022/09/12 22:34:04;;;;;;;6.07;5.47;;;;;;;17.33;57.10;99914.06;10138264;29;20076;-78
2022/09/12 22:39:08;;;;;;;7.80;6.00;;;;;;;17.31;57.36;99911.56;10120028;29;20059;-80
2022/09/12 22:44:11;;;;;;;7.07;5.90;;;;;;;17.31;57.51;99897.97;10138857;29;20068;-78
2022/09/12 22:49:14;;;;;;;6.60;5.10;;;;;;;17.14;57.67;99878.25;10123246;29;20064;-78
2022/09/12 22:54:18;;;;;;;6.45;5.18;;;;;;;17.04;57.95;99862.16;10127706;29;20201;-78
2022/09/12 22:59:21;;;;;;;5.85;5.28;;;;;;;17.01;57.97;99870.66;10130322;29;20069;-78
2022/09/12 23:04:24;;;;;;;6.30;4.93;;;;;;;17.02;57.97;99879.63;10123315;29;20048;-78
2022/09/12 23:09:28;;;;;;;5.95;4.97;;;;;;;17.02;58.21;99858.75;10135061;29;20061;-78
2022/09/12 23:14:36;;;;;;;7.30;5.55;;;;;;;16.97;57.89;99871.19;10158044;29;20104;-77
2022/09/12 23:19:39;;;;;;;7.82;5.90;;;;;;;16.98;58.11;99868.31;10148140;29;20033;-79
2022/09/12 23:24:43;;;;;;;7.65;5.72;;;;;;;16.93;58.35;99864.44;10113162;29;20132;-77
2022/09/12 23:29:51;;;;;;;7.88;6.40;;;;;;;16.99;58.41;99872.69;10135454;29;20450;-78
2022/09/12 23:34:54;;;;;;;7.82;6.72;;;;;;;17.01;58.40;99867.09;10115533;29;20459;-78